createdAt,value
2022-11-28T17:01:41.951Z,21.40
2022-11-28T17:03:46.518Z,18.60
2022-11-28T17:05:18.261Z,22.80
2022-11-28T17:06:50.690Z,20.40
2022-11-28T17:08:27.493Z,20.60
2022-11-28T17:10:01.887Z,20.60
2022-11-28T17:11:36.338Z,27.00
2022-11-28T17:13:09.249Z,24.80
2022-11-28T17:14:41.139Z,22.60
2022-11-28T17:16:17.318Z,26.20
2022-11-28T17:17:49.051Z,20.60
2022-11-28T17:19:20.692Z,8.40
2022-11-28T17:20:52.392Z,27.60
2022-11-28T17:22:25.644Z,21.00
2022-11-28T17:23:57.378Z,25.60
2022-11-28T17:25:29.604Z,25.00
2022-11-28T17:27:01.356Z,29.00
2022-11-28T17:28:33.183Z,27.20
2022-11-28T17:30:05.455Z,28.20
2022-11-28T17:31:37.596Z,23.80
2022-11-28T17:33:14.985Z,25.80
2022-11-28T17:34:46.924Z,27.40
2022-11-28T17:36:18.792Z,22.40
2022-11-28T17:37:50.568Z,24.20
2022-11-28T17:39:22.223Z,23.00
2022-11-28T17:40:53.916Z,24.00
2022-11-28T17:42:25.706Z,22.40
2022-11-28T17:43:58.080Z,23.20
2022-11-28T17:45:31.379Z,19.60
2022-11-28T17:47:03.591Z,21.40
2022-11-28T17:48:35.253Z,23.00
2022-11-28T17:50:07.561Z,22.60
2022-11-28T17:51:39.469Z,18.80
2022-11-28T17:53:12.015Z,25.00
2022-11-28T17:54:43.794Z,22.00
2022-11-28T17:56:15.711Z,22.20
2022-11-28T17:57:47.930Z,22.40
2022-11-28T17:59:21.017Z,23.20
2022-11-28T18:00:57.348Z,20.80
2022-11-28T18:02:31.800Z,18.20
2022-11-28T18:04:04.622Z,23.00
2022-11-28T18:05:40.559Z,21.00
2022-11-28T18:07:13.337Z,19.20
2022-11-28T18:08:46.006Z,23.00
2022-11-28T18:10:18.529Z,26.20
2022-11-28T18:11:51.752Z,21.20
2022-11-28T18:13:23.538Z,19.80
2022-11-28T18:14:55.422Z,16.60
2022-11-28T18:16:27.203Z,29.20
2022-11-28T18:17:59.383Z,25.60
2022-11-28T18:19:31.102Z,26.00
2022-11-28T18:21:03.289Z,25.00
2022-11-28T18:22:34.953Z,26.00
2022-11-28T18:24:07.465Z,28.00
2022-11-28T18:25:45.893Z,33.40
2022-11-28T18:27:17.503Z,42.80
2022-11-28T18:28:49.340Z,51.50
2022-11-28T18:30:21.233Z,67.25
2022-11-28T18:31:52.980Z,58.25
2022-11-28T18:33:25.623Z,80.00
2022-11-28T18:34:57.368Z,72.50
2022-11-28T18:36:29.840Z,100.40
2022-11-28T18:38:01.734Z,100.60
2022-11-28T18:39:34.068Z,103.40
2022-11-28T18:41:06.742Z,110.25
2022-11-28T18:42:38.996Z,112.50
2022-11-28T18:44:11.184Z,123.50
2022-11-28T18:45:43.005Z,124.50
2022-11-28T18:47:15.195Z,123.50
2022-11-28T18:48:47.234Z,147.75
2022-11-28T18:50:19.127Z,150.75
2022-11-28T18:51:51.177Z,152.50
2022-11-28T18:53:24.617Z,157.50
2022-11-28T18:54:56.297Z,147.00
2022-11-28T18:56:29.307Z,166.25
2022-11-28T18:58:02.171Z,172.75
2022-11-28T18:59:33.928Z,177.00
2022-11-28T19:01:16.699Z,172.50
2022-11-28T19:02:48.639Z,163.25
2022-11-28T19:04:20.411Z,169.50
2022-11-28T19:05:52.466Z,167.25
2022-11-28T19:07:24.483Z,169.25
2022-11-28T19:08:57.287Z,169.25
2022-11-28T19:10:29.075Z,184.50
2022-11-28T19:12:01.066Z,171.25
2022-11-28T19:13:32.851Z,153.50
2022-11-28T19:15:05.032Z,164.75
2022-11-28T19:16:37.765Z,159.25
2022-11-28T19:18:09.669Z,157.25
2022-11-28T19:19:44.201Z,163.50
2022-11-28T19:21:18.065Z,144.00
2022-11-28T19:22:49.864Z,148.00
2022-11-28T19:24:21.811Z,139.50
2022-11-28T19:25:54.813Z,138.00
2022-11-28T19:27:27.764Z,139.25
2022-11-28T19:28:59.895Z,135.25
2022-11-28T19:30:32.839Z,123.50
2022-11-28T19:32:05.681Z,125.25
2022-11-28T19:33:37.488Z,132.00
2022-11-28T19:35:09.558Z,136.75
2022-11-28T19:36:43.098Z,146.25
2022-11-28T19:38:15.034Z,152.00
2022-11-28T19:39:47.536Z,133.50
2022-11-28T19:41:20.800Z,157.00
2022-11-28T19:42:53.441Z,140.75
2022-11-28T19:44:28.965Z,134.50
2022-11-28T19:46:18.084Z,137.75
2022-11-28T19:47:49.867Z,138.75
2022-11-28T19:49:23.658Z,141.25
2022-11-28T19:50:55.538Z,138.25
2022-11-28T19:52:27.939Z,133.00
2022-11-28T19:54:03.281Z,152.50
2022-11-28T19:55:37.989Z,160.75
2022-11-28T19:57:11.364Z,179.00
2022-11-28T19:58:43.382Z,158.50
2022-11-28T20:00:16.093Z,158.00
2022-11-28T20:01:53.781Z,162.75
2022-11-28T20:03:25.400Z,162.25
2022-11-28T20:04:57.330Z,153.25
2022-11-28T20:06:30.629Z,201.33
2022-11-28T20:08:02.994Z,172.75
2022-11-28T20:09:34.954Z,165.25
2022-11-28T20:11:18.413Z,153.50
2022-11-28T20:12:50.555Z,167.75
2022-11-28T20:14:23.646Z,152.75
2022-11-28T20:15:55.377Z,165.00
2022-11-28T20:17:28.152Z,151.75
2022-11-28T20:19:03.090Z,165.50
2022-11-28T20:20:34.963Z,169.50
2022-11-28T20:22:06.971Z,161.75
2022-11-28T20:23:44.688Z,177.00
2022-11-28T20:25:20.778Z,163.75
2022-11-28T20:26:56.989Z,164.75
2022-11-28T20:28:31.729Z,161.50
2022-11-28T20:30:05.981Z,158.00
2022-11-28T20:31:45.660Z,185.50
2022-11-28T20:33:19.844Z,163.25
2022-11-28T20:34:51.758Z,147.50
2022-11-28T20:36:24.346Z,146.50
2022-11-28T20:37:56.123Z,146.75
2022-11-28T20:39:27.817Z,136.25
2022-11-28T20:41:03.599Z,135.50
2022-11-28T20:42:40.168Z,137.00
2022-11-28T20:44:12.178Z,142.25
2022-11-28T20:45:44.007Z,151.75
2022-11-28T20:47:15.829Z,141.50
2022-11-28T20:48:47.905Z,140.25
2022-11-28T20:50:19.752Z,137.50
2022-11-28T20:51:51.638Z,127.25
2022-11-28T20:53:26.807Z,132.50
2022-11-28T20:54:58.937Z,127.00
2022-11-28T20:56:31.827Z,125.50
2022-11-28T20:58:03.668Z,113.75
2022-11-28T20:59:35.433Z,114.50
2022-11-28T21:01:07.463Z,111.40
2022-11-28T21:02:39.469Z,101.80
2022-11-28T21:04:13.235Z,96.60
2022-11-28T21:05:45.111Z,97.60
2022-11-28T21:07:17.921Z,82.75
2022-11-28T21:08:49.743Z,87.75
2022-11-28T21:10:21.478Z,84.25
2022-11-28T21:11:59.043Z,81.50
2022-11-28T21:13:32.031Z,78.75
2022-11-28T21:15:04.025Z,84.00
2022-11-28T21:16:35.902Z,77.50
2022-11-28T21:18:09.229Z,67.75
2022-11-28T21:19:41.110Z,78.00
2022-11-28T21:21:14.935Z,78.75
2022-11-28T21:22:46.684Z,94.25
2022-11-28T21:24:18.399Z,109.00
2022-11-28T21:25:50.181Z,91.50
2022-11-28T21:27:21.919Z,88.75
2022-11-28T21:28:55.046Z,94.00
2022-11-28T21:30:26.673Z,88.25
2022-11-28T21:31:58.374Z,94.75
2022-11-28T21:33:30.128Z,97.40
2022-11-28T21:35:04.676Z,89.25
2022-11-28T21:36:36.569Z,100.25
2022-11-28T21:38:08.319Z,92.00
2022-11-28T21:39:40.060Z,96.00
2022-11-28T21:41:12.787Z,97.60
2022-11-28T21:42:44.559Z,96.00
2022-11-28T21:44:16.466Z,92.00
2022-11-28T21:45:48.188Z,91.75
2022-11-28T21:47:19.915Z,87.60
2022-11-28T21:48:52.233Z,100.75
2022-11-28T21:50:24.052Z,92.75
2022-11-28T21:51:55.829Z,95.75
2022-11-28T21:53:29.262Z,95.75
2022-11-28T21:55:01.003Z,92.25
2022-11-28T21:56:32.813Z,85.75
2022-11-28T21:58:04.523Z,88.50
2022-11-28T21:59:36.270Z,94.00
2022-11-28T22:01:10.084Z,113.40
2022-11-28T22:02:46.380Z,126.25
2022-11-28T22:04:21.893Z,119.50
2022-11-28T22:05:59.988Z,112.50
2022-11-28T22:07:32.312Z,131.50
2022-11-28T22:09:09.165Z,129.25
2022-11-28T22:10:41.655Z,123.75
2022-11-28T22:12:13.353Z,132.50
2022-11-28T22:13:48.033Z,116.25
2022-11-28T22:15:20.480Z,122.50
2022-11-28T22:16:52.540Z,119.75
2022-11-28T22:18:24.532Z,126.75
2022-11-28T22:19:56.366Z,140.00
2022-11-28T22:21:51.453Z,145.00
2022-11-28T22:23:20.170Z,161.25
2022-11-28T22:24:52.340Z,147.75
2022-11-28T22:26:24.881Z,147.00
2022-11-28T22:27:56.844Z,136.75
2022-11-28T22:29:28.712Z,158.50
2022-11-28T22:31:09.299Z,148.25
2022-11-28T22:32:41.437Z,160.25
2022-11-28T22:34:13.594Z,146.50
2022-11-28T22:35:45.635Z,145.25
2022-11-28T22:37:18.103Z,143.75
2022-11-28T22:38:54.637Z,139.25
2022-11-28T22:40:26.314Z,140.25
2022-11-28T22:41:58.023Z,130.75
2022-11-28T22:43:29.955Z,138.50
2022-11-28T22:45:02.037Z,123.25
2022-11-28T22:46:33.864Z,132.00
2022-11-28T22:48:05.995Z,127.00
2022-11-28T22:49:37.987Z,125.75
2022-11-28T22:51:17.799Z,121.25
2022-11-28T22:52:49.483Z,111.25
2022-11-28T22:54:22.219Z,123.50
2022-11-28T22:55:55.463Z,121.25
2022-11-28T22:57:28.118Z,115.00
2022-11-28T22:58:59.983Z,115.25
2022-11-28T23:00:32.843Z,109.00
2022-11-28T23:02:05.137Z,108.00
2022-11-28T23:03:37.049Z,107.80
2022-11-28T23:05:09.072Z,109.80
2022-11-28T23:06:40.852Z,99.40
2022-11-28T23:08:14.136Z,96.60
2022-11-28T23:09:46.468Z,90.25
2022-11-28T23:11:22.896Z,93.40
2022-11-28T23:12:54.887Z,96.25
2022-11-28T23:14:27.612Z,91.00
2022-11-28T23:16:35.566Z,85.33
2022-11-28T23:18:07.669Z,82.75
2022-11-28T23:19:40.192Z,80.00
2022-11-28T23:21:12.811Z,102.60
2022-11-28T23:22:45.426Z,81.75
2022-11-28T23:24:19.479Z,86.00
2022-11-28T23:25:51.323Z,81.50
2022-11-28T23:27:23.329Z,71.50
2022-11-28T23:28:55.103Z,75.50
2022-11-28T23:30:27.367Z,69.75
2022-11-28T23:31:59.227Z,74.25
2022-11-28T23:33:33.028Z,78.50
